sensor_id;sensor_type;location;lat;lon;timestamp;P1;durP1;ratioP1;P2;durP2;ratioP2
16828;SDS011;8531;48.078;11.968;2022-07-30T00:01:58;1.40;;;1.10;;
16828;SDS011;8531;48.078;11.968;2022-07-30T00:04:24;1.08;;;0.98;;
16828;SDS011;8531;48.078;11.968;2022-07-30T00:06:50;0.80;;;0.80;;
16828;SDS011;8531;48.078;11.968;2022-07-30T00:09:16;2.30;;;1.10;;
16828;SDS011;8531;48.078;11.968;2022-07-30T00:11:41;1.08;;;0.80;;
16828;SDS011;8531;48.078;11.968;2022-07-30T00:14:08;1.73;;;1.00;;
16828;SDS011;8531;48.078;11.968;2022-07-30T00:16:34;1.92;;;0.93;;
16828;SDS011;8531;48.078;11.968;2022-07-30T00:19:00;2.17;;;1.13;;
16828;SDS011;8531;48.078;11.968;2022-07-30T00:21:26;0.80;;;0.80;;
16828;SDS011;8531;48.078;11.968;2022-07-30T00:23:52;1.00;;;0.90;;
16828;SDS011;8531;48.078;11.968;2022-07-30T00:26:17;2.20;;;1.00;;
16828;SDS011;8531;48.078;11.968;2022-07-30T00:28:43;0.80;;;0.70;;
16828;SDS011;8531;48.078;11.968;2022-07-30T00:31:09;1.10;;;1.00;;
16828;SDS011;8531;48.078;11.968;2022-07-30T00:33:34;1.10;;;0.95;;
16828;SDS011;8531;48.078;11.968;2022-07-30T00:36:00;2.33;;;0.93;;
16828;SDS011;8531;48.078;11.968;2022-07-30T00:38:26;1.40;;;1.08;;
16828;SDS011;8531;48.078;11.968;2022-07-30T00:40:52;1.35;;;1.05;;
16828;SDS011;8531;48.078;11.968;2022-07-30T00:43:17;1.60;;;1.17;;
16828;SDS011;8531;48.078;11.968;2022-07-30T00:45:44;1.27;;;0.95;;
16828;SDS011;8531;48.078;11.968;2022-07-30T00:48:10;1.25;;;0.93;;
16828;SDS011;8531;48.078;11.968;2022-07-30T00:50:37;3.42;;;1.15;;
16828;SDS011;8531;48.078;11.968;2022-07-30T00:53:03;4.95;;;1.45;;
16828;SDS011;8531;48.078;11.968;2022-07-30T00:55:29;4.63;;;1.45;;
16828;SDS011;8531;48.078;11.968;2022-07-30T00:57:55;1.50;;;1.13;;
16828;SDS011;8531;48.078;11.968;2022-07-30T01:00:21;1.60;;;1.30;;
16828;SDS011;8531;48.078;11.968;2022-07-30T01:02:47;1.85;;;1.38;;
16828;SDS011;8531;48.078;11.968;2022-07-30T01:05:12;3.17;;;1.60;;
16828;SDS011;8531;48.078;11.968;2022-07-30T01:07:38;1.50;;;1.13;;
16828;SDS011;8531;48.078;11.968;2022-07-30T01:10:05;2.95;;;1.60;;
16828;SDS011;8531;48.078;11.968;2022-07-30T01:12:33;3.42;;;1.27;;
16828;SDS011;8531;48.078;11.968;2022-07-30T01:15:00;3.72;;;1.25;;
16828;SDS011;8531;48.078;11.968;2022-07-30T01:17:28;1.98;;;1.75;;
16828;SDS011;8531;48.078;11.968;2022-07-30T01:19:55;3.40;;;1.40;;
16828;SDS011;8531;48.078;11.968;2022-07-30T01:24:55;3.40;;;1.58;;
16828;SDS011;8531;48.078;11.968;2022-07-30T01:28:42;1.27;;;1.10;;
16828;SDS011;8531;48.078;11.968;2022-07-30T01:30:42;2.40;;;1.65;;
16828;SDS011;8531;48.078;11.968;2022-07-30T01:33:10;1.30;;;1.20;;
16828;SDS011;8531;48.078;11.968;2022-07-30T01:35:39;2.03;;;1.63;;
16828;SDS011;8531;48.078;11.968;2022-07-30T01:38:07;1.50;;;1.40;;
16828;SDS011;8531;48.078;11.968;2022-07-30T01:40:35;1.92;;;1.83;;
16828;SDS011;8531;48.078;11.968;2022-07-30T01:43:02;1.60;;;1.50;;
16828;SDS011;8531;48.078;11.968;2022-07-30T01:45:30;1.60;;;1.50;;
16828;SDS011;8531;48.078;11.968;2022-07-30T01:47:57;1.60;;;1.50;;
16828;SDS011;8531;48.078;11.968;2022-07-30T01:50:24;2.95;;;1.85;;
16828;SDS011;8531;48.078;11.968;2022-07-30T01:52:53;1.25;;;1.15;;
16828;SDS011;8531;48.078;11.968;2022-07-30T01:55:27;2.53;;;1.25;;
16828;SDS011;8531;48.078;11.968;2022-07-30T01:57:56;2.53;;;1.30;;
16828;SDS011;8531;48.078;11.968;2022-07-30T02:00:23;1.95;;;1.38;;
16828;SDS011;8531;48.078;11.968;2022-07-30T02:02:52;1.30;;;1.15;;
16828;SDS011;8531;48.078;11.968;2022-07-30T02:05:18;3.78;;;1.77;;
16828;SDS011;8531;48.078;11.968;2022-07-30T02:10:23;3.17;;;1.92;;
16828;SDS011;8531;48.078;11.968;2022-07-30T02:12:56;2.15;;;1.63;;
16828;SDS011;8531;48.078;11.968;2022-07-30T02:18:02;1.88;;;1.30;;
16828;SDS011;8531;48.078;11.968;2022-07-30T02:21:03;4.68;;;1.60;;
16828;SDS011;8531;48.078;11.968;2022-07-30T02:23:32;2.28;;;1.52;;
16828;SDS011;8531;48.078;11.968;2022-07-30T02:26:02;2.28;;;1.40;;
16828;SDS011;8531;48.078;11.968;2022-07-30T02:28:29;2.13;;;1.60;;
16828;SDS011;8531;48.078;11.968;2022-07-30T02:30:59;2.83;;;1.70;;
16828;SDS011;8531;48.078;11.968;2022-07-30T02:33:26;1.80;;;1.50;;
16828;SDS011;8531;48.078;11.968;2022-07-30T02:35:57;2.20;;;2.00;;
16828;SDS011;8531;48.078;11.968;2022-07-30T02:38:24;2.63;;;1.50;;
16828;SDS011;8531;48.078;11.968;2022-07-30T02:40:53;1.83;;;1.48;;
16828;SDS011;8531;48.078;11.968;2022-07-30T02:43:22;2.65;;;1.42;;
16828;SDS011;8531;48.078;11.968;2022-07-30T02:45:50;2.47;;;1.58;;
16828;SDS011;8531;48.078;11.968;2022-07-30T02:48:17;3.90;;;1.70;;
16828;SDS011;8531;48.078;11.968;2022-07-30T02:50:46;1.70;;;1.60;;
16828;SDS011;8531;48.078;11.968;2022-07-30T02:53:14;2.75;;;1.58;;
16828;SDS011;8531;48.078;11.968;2022-07-30T02:55:42;2.25;;;1.63;;
16828;SDS011;8531;48.078;11.968;2022-07-30T02:58:09;1.80;;;1.65;;
16828;SDS011;8531;48.078;11.968;2022-07-30T03:00:36;3.00;;;1.38;;
16828;SDS011;8531;48.078;11.968;2022-07-30T03:03:03;1.50;;;1.38;;
16828;SDS011;8531;48.078;11.968;2022-07-30T03:05:31;2.58;;;1.60;;
16828;SDS011;8531;48.078;11.968;2022-07-30T03:07:57;1.45;;;1.35;;
16828;SDS011;8531;48.078;11.968;2022-07-30T03:10:24;3.65;;;1.70;;
16828;SDS011;8531;48.078;11.968;2022-07-30T03:12:51;1.98;;;1.63;;
16828;SDS011;8531;48.078;11.968;2022-07-30T03:15:18;4.47;;;1.58;;
16828;SDS011;8531;48.078;11.968;2022-07-30T03:17:44;3.45;;;2.22;;
16828;SDS011;8531;48.078;11.968;2022-07-30T03:20:16;1.60;;;1.50;;
16828;SDS011;8531;48.078;11.968;2022-07-30T03:22:47;1.60;;;1.50;;
16828;SDS011;8531;48.078;11.968;2022-07-30T03:25:18;1.80;;;1.60;;
16828;SDS011;8531;48.078;11.968;2022-07-30T03:27:46;2.28;;;1.70;;
16828;SDS011;8531;48.078;11.968;2022-07-30T03:30:14;1.40;;;1.30;;
16828;SDS011;8531;48.078;11.968;2022-07-30T03:32:40;1.80;;;1.35;;
16828;SDS011;8531;48.078;11.968;2022-07-30T03:35:07;2.35;;;1.45;;
16828;SDS011;8531;48.078;11.968;2022-07-30T03:37:34;1.65;;;1.50;;
16828;SDS011;8531;48.078;11.968;2022-07-30T03:40:03;2.28;;;1.45;;
16828;SDS011;8531;48.078;11.968;2022-07-30T03:42:30;2.20;;;2.00;;
16828;SDS011;8531;48.078;11.968;2022-07-30T03:44:57;1.85;;;1.13;;
16828;SDS011;8531;48.078;11.968;2022-07-30T03:47:25;2.08;;;1.73;;
16828;SDS011;8531;48.078;11.968;2022-07-30T03:49:51;2.63;;;1.75;;
16828;SDS011;8531;48.078;11.968;2022-07-30T03:52:18;2.05;;;1.70;;
16828;SDS011;8531;48.078;11.968;2022-07-30T03:54:44;2.85;;;2.40;;
16828;SDS011;8531;48.078;11.968;2022-07-30T03:57:11;3.38;;;1.50;;
16828;SDS011;8531;48.078;11.968;2022-07-30T03:59:37;4.07;;;2.00;;
16828;SDS011;8531;48.078;11.968;2022-07-30T04:02:03;1.48;;;1.38;;
16828;SDS011;8531;48.078;11.968;2022-07-30T04:04:29;1.67;;;1.42;;
16828;SDS011;8531;48.078;11.968;2022-07-30T04:06:57;1.98;;;1.67;;
16828;SDS011;8531;48.078;11.968;2022-07-30T04:09:23;2.42;;;1.80;;
16828;SDS011;8531;48.078;11.968;2022-07-30T04:11:49;3.55;;;1.80;;
16828;SDS011;8531;48.078;11.968;2022-07-30T04:14:15;4.22;;;1.35;;
16828;SDS011;8531;48.078;11.968;2022-07-30T04:16:51;2.33;;;1.55;;
16828;SDS011;8531;48.078;11.968;2022-07-30T04:19:25;3.22;;;1.90;;
16828;SDS011;8531;48.078;11.968;2022-07-30T04:21:58;1.92;;;1.48;;
16828;SDS011;8531;48.078;11.968;2022-07-30T04:24:25;1.55;;;1.45;;
16828;SDS011;8531;48.078;11.968;2022-07-30T04:26:53;2.60;;;1.70;;
16828;SDS011;8531;48.078;11.968;2022-07-30T04:29:19;4.75;;;1.67;;
16828;SDS011;8531;48.078;11.968;2022-07-30T04:31:46;2.33;;;1.60;;
16828;SDS011;8531;48.078;11.968;2022-07-30T04:34:12;2.78;;;1.65;;
16828;SDS011;8531;48.078;11.968;2022-07-30T04:36:39;2.35;;;1.70;;
16828;SDS011;8531;48.078;11.968;2022-07-30T04:39:05;2.78;;;1.25;;
16828;SDS011;8531;48.078;11.968;2022-07-30T04:41:31;2.15;;;1.80;;
16828;SDS011;8531;48.078;11.968;2022-07-30T04:43:56;2.90;;;1.63;;
16828;SDS011;8531;48.078;11.968;2022-07-30T04:46:22;3.80;;;1.80;;
16828;SDS011;8531;48.078;11.968;2022-07-30T04:48:48;3.08;;;1.80;;
16828;SDS011;8531;48.078;11.968;2022-07-30T04:51:17;1.60;;;1.50;;
16828;SDS011;8531;48.078;11.968;2022-07-30T04:53:48;2.55;;;1.73;;
16828;SDS011;8531;48.078;11.968;2022-07-30T04:56:17;2.53;;;1.92;;
16828;SDS011;8531;48.078;11.968;2022-07-30T04:58:45;3.92;;;1.40;;
16828;SDS011;8531;48.078;11.968;2022-07-30T05:01:12;2.60;;;1.67;;
16828;SDS011;8531;48.078;11.968;2022-07-30T05:03:45;1.85;;;1.75;;
16828;SDS011;8531;48.078;11.968;2022-07-30T05:06:13;1.98;;;1.60;;
16828;SDS011;8531;48.078;11.968;2022-07-30T05:08:40;2.50;;;1.50;;
16828;SDS011;8531;48.078;11.968;2022-07-30T05:11:09;2.55;;;1.80;;
16828;SDS011;8531;48.078;11.968;2022-07-30T05:13:36;3.38;;;1.92;;
16828;SDS011;8531;48.078;11.968;2022-07-30T05:16:04;2.05;;;1.70;;
16828;SDS011;8531;48.078;11.968;2022-07-30T05:18:29;4.20;;;1.73;;
16828;SDS011;8531;48.078;11.968;2022-07-30T05:20:55;2.47;;;2.08;;
16828;SDS011;8531;48.078;11.968;2022-07-30T05:23:21;2.10;;;1.90;;
16828;SDS011;8531;48.078;11.968;2022-07-30T05:25:46;1.50;;;1.40;;
16828;SDS011;8531;48.078;11.968;2022-07-30T05:28:12;1.80;;;1.67;;
16828;SDS011;8531;48.078;11.968;2022-07-30T05:30:37;1.85;;;1.75;;
16828;SDS011;8531;48.078;11.968;2022-07-30T05:33:03;2.40;;;1.80;;
16828;SDS011;8531;48.078;11.968;2022-07-30T05:35:29;2.65;;;2.25;;
16828;SDS011;8531;48.078;11.968;2022-07-30T05:37:54;2.15;;;1.95;;
16828;SDS011;8531;48.078;11.968;2022-07-30T05:40:20;3.97;;;2.20;;
16828;SDS011;8531;48.078;11.968;2022-07-30T05:42:46;3.13;;;2.30;;
16828;SDS011;8531;48.078;11.968;2022-07-30T05:45:11;3.47;;;1.83;;
16828;SDS011;8531;48.078;11.968;2022-07-30T05:47:37;2.10;;;1.90;;
16828;SDS011;8531;48.078;11.968;2022-07-30T05:50:03;2.25;;;2.05;;
16828;SDS011;8531;48.078;11.968;2022-07-30T05:52:28;1.85;;;1.73;;
16828;SDS011;8531;48.078;11.968;2022-07-30T05:54:54;3.67;;;1.77;;
16828;SDS011;8531;48.078;11.968;2022-07-30T05:57:20;2.65;;;2.22;;
16828;SDS011;8531;48.078;11.968;2022-07-30T05:59:45;2.90;;;1.85;;
16828;SDS011;8531;48.078;11.968;2022-07-30T06:02:11;2.83;;;1.70;;
16828;SDS011;8531;48.078;11.968;2022-07-30T06:04:37;2.42;;;2.00;;
16828;SDS011;8531;48.078;11.968;2022-07-30T06:07:02;2.92;;;1.95;;
16828;SDS011;8531;48.078;11.968;2022-07-30T06:09:28;3.78;;;2.05;;
16828;SDS011;8531;48.078;11.968;2022-07-30T06:11:54;2.38;;;2.08;;
16828;SDS011;8531;48.078;11.968;2022-07-30T06:14:19;2.22;;;1.77;;
16828;SDS011;8531;48.078;11.968;2022-07-30T06:16:45;2.30;;;2.10;;
16828;SDS011;8531;48.078;11.968;2022-07-30T06:19:10;2.58;;;2.30;;
16828;SDS011;8531;48.078;11.968;2022-07-30T06:21:36;3.42;;;2.15;;
16828;SDS011;8531;48.078;11.968;2022-07-30T06:24:01;2.33;;;2.00;;
16828;SDS011;8531;48.078;11.968;2022-07-30T06:26:27;4.90;;;2.47;;
16828;SDS011;8531;48.078;11.968;2022-07-30T06:28:53;3.30;;;2.60;;
16828;SDS011;8531;48.078;11.968;2022-07-30T06:31:18;3.60;;;2.30;;
16828;SDS011;8531;48.078;11.968;2022-07-30T06:33:44;2.30;;;2.08;;
16828;SDS011;8531;48.078;11.968;2022-07-30T06:36:09;2.60;;;1.90;;
16828;SDS011;8531;48.078;11.968;2022-07-30T06:38:35;6.43;;;2.85;;
16828;SDS011;8531;48.078;11.968;2022-07-30T06:41:01;3.33;;;2.10;;
16828;SDS011;8531;48.078;11.968;2022-07-30T06:43:26;2.38;;;1.90;;
16828;SDS011;8531;48.078;11.968;2022-07-30T06:45:52;3.80;;;2.33;;
16828;SDS011;8531;48.078;11.968;2022-07-30T06:48:18;2.95;;;2.47;;
16828;SDS011;8531;48.078;11.968;2022-07-30T06:50:43;4.85;;;2.28;;
16828;SDS011;8531;48.078;11.968;2022-07-30T06:53:09;2.80;;;2.30;;
16828;SDS011;8531;48.078;11.968;2022-07-30T06:55:35;3.60;;;2.50;;
16828;SDS011;8531;48.078;11.968;2022-07-30T06:58:00;4.40;;;2.45;;
16828;SDS011;8531;48.078;11.968;2022-07-30T07:00:26;3.47;;;2.40;;
16828;SDS011;8531;48.078;11.968;2022-07-30T07:02:52;2.50;;;2.30;;
16828;SDS011;8531;48.078;11.968;2022-07-30T07:05:18;4.10;;;2.55;;
16828;SDS011;8531;48.078;11.968;2022-07-30T07:07:44;3.47;;;2.78;;
16828;SDS011;8531;48.078;11.968;2022-07-30T07:10:10;2.50;;;2.05;;
16828;SDS011;8531;48.078;11.968;2022-07-30T07:12:35;2.70;;;2.50;;
16828;SDS011;8531;48.078;11.968;2022-07-30T07:15:01;4.13;;;2.75;;
16828;SDS011;8531;48.078;11.968;2022-07-30T07:17:27;2.60;;;2.40;;
16828;SDS011;8531;48.078;11.968;2022-07-30T07:19:53;3.00;;;2.70;;
16828;SDS011;8531;48.078;11.968;2022-07-30T07:22:19;4.68;;;2.40;;
16828;SDS011;8531;48.078;11.968;2022-07-30T07:24:44;5.55;;;2.85;;
16828;SDS011;8531;48.078;11.968;2022-07-30T07:27:10;3.80;;;2.90;;
16828;SDS011;8531;48.078;11.968;2022-07-30T07:29:35;3.40;;;2.65;;
16828;SDS011;8531;48.078;11.968;2022-07-30T07:32:01;2.97;;;2.78;;
16828;SDS011;8531;48.078;11.968;2022-07-30T07:34:27;4.93;;;2.95;;
16828;SDS011;8531;48.078;11.968;2022-07-30T07:36:52;3.88;;;3.47;;
16828;SDS011;8531;48.078;11.968;2022-07-30T07:39:18;3.05;;;2.70;;
16828;SDS011;8531;48.078;11.968;2022-07-30T07:41:44;2.80;;;2.60;;
16828;SDS011;8531;48.078;11.968;2022-07-30T07:44:09;5.13;;;3.75;;
16828;SDS011;8531;48.078;11.968;2022-07-30T07:46:35;3.40;;;3.10;;
16828;SDS011;8531;48.078;11.968;2022-07-30T07:49:00;5.03;;;3.25;;
16828;SDS011;8531;48.078;11.968;2022-07-30T07:51:26;3.80;;;3.42;;
16828;SDS011;8531;48.078;11.968;2022-07-30T07:53:52;4.30;;;3.58;;
16828;SDS011;8531;48.078;11.968;2022-07-30T07:56:17;5.43;;;3.55;;
16828;SDS011;8531;48.078;11.968;2022-07-30T07:58:45;3.45;;;3.15;;
16828;SDS011;8531;48.078;11.968;2022-07-30T08:01:11;4.82;;;3.03;;
16828;SDS011;8531;48.078;11.968;2022-07-30T08:03:36;3.47;;;2.95;;
16828;SDS011;8531;48.078;11.968;2022-07-30T08:06:02;3.78;;;2.85;;
16828;SDS011;8531;48.078;11.968;2022-07-30T08:08:28;3.08;;;2.88;;
16828;SDS011;8531;48.078;11.968;2022-07-30T08:10:53;4.78;;;3.20;;
16828;SDS011;8531;48.078;11.968;2022-07-30T08:13:19;4.35;;;3.33;;
16828;SDS011;8531;48.078;11.968;2022-07-30T08:15:45;4.78;;;3.53;;
16828;SDS011;8531;48.078;11.968;2022-07-30T08:18:10;4.40;;;3.60;;
16828;SDS011;8531;48.078;11.968;2022-07-30T08:20:37;5.20;;;3.13;;
16828;SDS011;8531;48.078;11.968;2022-07-30T08:23:03;3.20;;;2.90;;
16828;SDS011;8531;48.078;11.968;2022-07-30T08:25:29;3.97;;;3.20;;
16828;SDS011;8531;48.078;11.968;2022-07-30T08:27:55;4.78;;;3.15;;
16828;SDS011;8531;48.078;11.968;2022-07-30T08:30:20;4.10;;;3.70;;
16828;SDS011;8531;48.078;11.968;2022-07-30T08:32:46;4.25;;;3.63;;
16828;SDS011;8531;48.078;11.968;2022-07-30T08:35:12;5.10;;;4.55;;
16828;SDS011;8531;48.078;11.968;2022-07-30T08:37:38;4.32;;;3.30;;
16828;SDS011;8531;48.078;11.968;2022-07-30T08:40:06;6.45;;;3.58;;
16828;SDS011;8531;48.078;11.968;2022-07-30T08:42:36;3.83;;;3.45;;
16828;SDS011;8531;48.078;11.968;2022-07-30T08:45:02;3.50;;;3.13;;
16828;SDS011;8531;48.078;11.968;2022-07-30T08:47:32;6.55;;;3.72;;
16828;SDS011;8531;48.078;11.968;2022-07-30T08:49:58;7.32;;;3.55;;
16828;SDS011;8531;48.078;11.968;2022-07-30T08:52:29;4.55;;;3.10;;
16828;SDS011;8531;48.078;11.968;2022-07-30T08:54:57;4.18;;;3.78;;
16828;SDS011;8531;48.078;11.968;2022-07-30T08:57:23;4.55;;;3.03;;
16828;SDS011;8531;48.078;11.968;2022-07-30T08:59:50;6.03;;;3.00;;
16828;SDS011;8531;48.078;11.968;2022-07-30T09:02:16;4.45;;;3.33;;
16828;SDS011;8531;48.078;11.968;2022-07-30T09:04:41;3.47;;;3.08;;
16828;SDS011;8531;48.078;11.968;2022-07-30T09:07:07;5.78;;;3.83;;
16828;SDS011;8531;48.078;11.968;2022-07-30T09:09:33;3.67;;;3.38;;
16828;SDS011;8531;48.078;11.968;2022-07-30T09:11:58;5.07;;;3.45;;
16828;SDS011;8531;48.078;11.968;2022-07-30T09:14:24;4.00;;;3.20;;
16828;SDS011;8531;48.078;11.968;2022-07-30T09:16:54;5.28;;;2.70;;
16828;SDS011;8531;48.078;11.968;2022-07-30T09:19:22;4.35;;;3.10;;
16828;SDS011;8531;48.078;11.968;2022-07-30T09:21:55;6.18;;;2.75;;
16828;SDS011;8531;48.078;11.968;2022-07-30T09:24:21;3.95;;;2.63;;
16828;SDS011;8531;48.078;11.968;2022-07-30T09:27:05;2.55;;;2.35;;
16828;SDS011;8531;48.078;11.968;2022-07-30T09:29:31;4.93;;;2.70;;
16828;SDS011;8531;48.078;11.968;2022-07-30T09:34:33;3.20;;;2.08;;
16828;SDS011;8531;48.078;11.968;2022-07-30T09:37:15;4.50;;;2.30;;
16828;SDS011;8531;48.078;11.968;2022-07-30T09:39:41;2.30;;;2.10;;
16828;SDS011;8531;48.078;11.968;2022-07-30T09:42:18;2.42;;;2.10;;
16828;SDS011;8531;48.078;11.968;2022-07-30T09:44:45;2.47;;;2.10;;
16828;SDS011;8531;48.078;11.968;2022-07-30T09:50:05;3.20;;;1.85;;
16828;SDS011;8531;48.078;11.968;2022-07-30T09:52:32;2.50;;;2.00;;
16828;SDS011;8531;48.078;11.968;2022-07-30T09:54:58;2.40;;;2.20;;
16828;SDS011;8531;48.078;11.968;2022-07-30T09:57:24;2.95;;;2.00;;
16828;SDS011;8531;48.078;11.968;2022-07-30T09:59:49;2.30;;;2.10;;
16828;SDS011;8531;48.078;11.968;2022-07-30T10:02:15;2.08;;;1.88;;
16828;SDS011;8531;48.078;11.968;2022-07-30T10:04:41;3.03;;;2.40;;
16828;SDS011;8531;48.078;11.968;2022-07-30T10:07:15;3.80;;;2.00;;
16828;SDS011;8531;48.078;11.968;2022-07-30T10:09:42;2.70;;;1.80;;
16828;SDS011;8531;48.078;11.968;2022-07-30T10:12:09;3.60;;;2.10;;
16828;SDS011;8531;48.078;11.968;2022-07-30T10:14:36;6.47;;;2.42;;
16828;SDS011;8531;48.078;11.968;2022-07-30T10:17:05;2.70;;;1.60;;
16828;SDS011;8531;48.078;11.968;2022-07-30T10:19:31;4.85;;;2.08;;
16828;SDS011;8531;48.078;11.968;2022-07-30T10:21:58;3.42;;;1.80;;
16828;SDS011;8531;48.078;11.968;2022-07-30T10:24:24;2.03;;;1.50;;
16828;SDS011;8531;48.078;11.968;2022-07-30T10:26:50;3.35;;;1.58;;
16828;SDS011;8531;48.078;11.968;2022-07-30T10:29:18;1.70;;;1.58;;
16828;SDS011;8531;48.078;11.968;2022-07-30T10:31:45;2.20;;;1.98;;
16828;SDS011;8531;48.078;11.968;2022-07-30T10:34:12;2.60;;;1.42;;
16828;SDS011;8531;48.078;11.968;2022-07-30T10:36:46;3.63;;;2.00;;
16828;SDS011;8531;48.078;11.968;2022-07-30T10:39:16;1.90;;;1.35;;
16828;SDS011;8531;48.078;11.968;2022-07-30T10:49:26;3.05;;;1.52;;
16828;SDS011;8531;48.078;11.968;2022-07-30T10:54:59;2.35;;;1.70;;
16828;SDS011;8531;48.078;11.968;2022-07-30T10:57:25;3.03;;;1.58;;
16828;SDS011;8531;48.078;11.968;2022-07-30T11:02:26;1.98;;;1.75;;
16828;SDS011;8531;48.078;11.968;2022-07-30T11:07:44;3.33;;;1.95;;
16828;SDS011;8531;48.078;11.968;2022-07-30T11:10:43;2.00;;;1.38;;
16828;SDS011;8531;48.078;11.968;2022-07-30T11:13:04;1.40;;;1.30;;
16828;SDS011;8531;48.078;11.968;2022-07-30T11:18:17;3.92;;;1.02;;
16828;SDS011;8531;48.078;11.968;2022-07-30T11:20:43;2.17;;;1.38;;
16828;SDS011;8531;48.078;11.968;2022-07-30T11:23:39;3.47;;;1.42;;
16828;SDS011;8531;48.078;11.968;2022-07-30T11:26:06;2.08;;;1.23;;
16828;SDS011;8531;48.078;11.968;2022-07-30T11:28:33;2.20;;;1.27;;
16828;SDS011;8531;48.078;11.968;2022-07-30T11:31:03;3.92;;;1.17;;
16828;SDS011;8531;48.078;11.968;2022-07-30T11:33:50;1.80;;;1.20;;
16828;SDS011;8531;48.078;11.968;2022-07-30T11:36:16;1.73;;;1.20;;
16828;SDS011;8531;48.078;11.968;2022-07-30T11:38:57;2.70;;;1.42;;
16828;SDS011;8531;48.078;11.968;2022-07-30T11:41:23;3.95;;;1.20;;
16828;SDS011;8531;48.078;11.968;2022-07-30T11:46:51;1.90;;;1.20;;
16828;SDS011;8531;48.078;11.968;2022-07-30T11:49:17;3.15;;;1.40;;
16828;SDS011;8531;48.078;11.968;2022-07-30T11:51:45;2.75;;;1.30;;
16828;SDS011;8531;48.078;11.968;2022-07-30T11:54:12;1.55;;;1.45;;
16828;SDS011;8531;48.078;11.968;2022-07-30T11:56:48;2.08;;;1.30;;
16828;SDS011;8531;48.078;11.968;2022-07-30T11:59:13;1.00;;;0.90;;
16828;SDS011;8531;48.078;11.968;2022-07-30T12:01:39;3.35;;;1.52;;
16828;SDS011;8531;48.078;11.968;2022-07-30T12:04:06;2.60;;;1.10;;
16828;SDS011;8531;48.078;11.968;2022-07-30T12:06:33;3.80;;;1.50;;
16828;SDS011;8531;48.078;11.968;2022-07-30T12:09:08;3.08;;;1.40;;
16828;SDS011;8531;48.078;11.968;2022-07-30T12:11:33;1.23;;;1.00;;
16828;SDS011;8531;48.078;11.968;2022-07-30T12:14:00;2.30;;;1.27;;
16828;SDS011;8531;48.078;11.968;2022-07-30T12:16:27;6.03;;;1.90;;
16828;SDS011;8531;48.078;11.968;2022-07-30T12:18:54;1.25;;;0.90;;
16828;SDS011;8531;48.078;11.968;2022-07-30T12:21:28;2.45;;;1.10;;
16828;SDS011;8531;48.078;11.968;2022-07-30T12:23:55;1.50;;;1.10;;
16828;SDS011;8531;48.078;11.968;2022-07-30T12:26:24;2.45;;;1.27;;
16828;SDS011;8531;48.078;11.968;2022-07-30T12:28:52;3.67;;;1.00;;
16828;SDS011;8531;48.078;11.968;2022-07-30T12:31:19;2.83;;;1.30;;
16828;SDS011;8531;48.078;11.968;2022-07-30T12:33:45;2.22;;;1.30;;
16828;SDS011;8531;48.078;11.968;2022-07-30T12:36:22;2.50;;;1.20;;
16828;SDS011;8531;48.078;11.968;2022-07-30T12:38:50;1.52;;;1.13;;
16828;SDS011;8531;48.078;11.968;2022-07-30T12:41:17;2.47;;;1.63;;
16828;SDS011;8531;48.078;11.968;2022-07-30T12:43:44;7.32;;;5.18;;
16828;SDS011;8531;48.078;11.968;2022-07-30T12:46:17;2.78;;;1.17;;
16828;SDS011;8531;48.078;11.968;2022-07-30T12:49:17;1.67;;;0.90;;
16828;SDS011;8531;48.078;11.968;2022-07-30T12:51:49;1.40;;;0.90;;
16828;SDS011;8531;48.078;11.968;2022-07-30T12:54:17;3.05;;;1.02;;
16828;SDS011;8531;48.078;11.968;2022-07-30T12:56:57;1.20;;;0.90;;
16828;SDS011;8531;48.078;11.968;2022-07-30T12:59:24;2.80;;;1.35;;
16828;SDS011;8531;48.078;11.968;2022-07-30T13:01:50;3.83;;;1.38;;
16828;SDS011;8531;48.078;11.968;2022-07-30T13:04:17;1.17;;;0.80;;
16828;SDS011;8531;48.078;11.968;2022-07-30T13:06:43;1.50;;;0.77;;
16828;SDS011;8531;48.078;11.968;2022-07-30T13:09:26;3.10;;;1.17;;
16828;SDS011;8531;48.078;11.968;2022-07-30T13:11:52;1.02;;;0.93;;
16828;SDS011;8531;48.078;11.968;2022-07-30T13:14:17;1.45;;;0.90;;
16828;SDS011;8531;48.078;11.968;2022-07-30T13:16:44;1.35;;;0.85;;
16828;SDS011;8531;48.078;11.968;2022-07-30T13:19:10;1.58;;;0.95;;
16828;SDS011;8531;48.078;11.968;2022-07-30T13:21:36;2.05;;;1.08;;
16828;SDS011;8531;48.078;11.968;2022-07-30T13:24:02;3.10;;;0.80;;
16828;SDS011;8531;48.078;11.968;2022-07-30T13:26:28;1.95;;;0.90;;
16828;SDS011;8531;48.078;11.968;2022-07-30T13:28:55;1.75;;;0.63;;
16828;SDS011;8531;48.078;11.968;2022-07-30T13:31:21;1.25;;;0.80;;
16828;SDS011;8531;48.078;11.968;2022-07-30T13:33:47;2.13;;;0.85;;
16828;SDS011;8531;48.078;11.968;2022-07-30T13:36:13;1.40;;;0.80;;
16828;SDS011;8531;48.078;11.968;2022-07-30T13:38:39;1.65;;;0.73;;
16828;SDS011;8531;48.078;11.968;2022-07-30T13:41:05;1.25;;;0.80;;
16828;SDS011;8531;48.078;11.968;2022-07-30T13:43:31;0.80;;;0.70;;
16828;SDS011;8531;48.078;11.968;2022-07-30T13:45:57;0.77;;;0.75;;
16828;SDS011;8531;48.078;11.968;2022-07-30T13:48:22;0.90;;;0.90;;
16828;SDS011;8531;48.078;11.968;2022-07-30T13:50:48;0.80;;;0.80;;
16828;SDS011;8531;48.078;11.968;2022-07-30T13:53:14;1.95;;;0.85;;
16828;SDS011;8531;48.078;11.968;2022-07-30T13:55:39;1.20;;;0.90;;
16828;SDS011;8531;48.078;11.968;2022-07-30T13:58:06;2.28;;;1.20;;
16828;SDS011;8531;48.078;11.968;2022-07-30T14:00:33;1.73;;;0.77;;
16828;SDS011;8531;48.078;11.968;2022-07-30T14:03:02;2.80;;;1.40;;
16828;SDS011;8531;48.078;11.968;2022-07-30T14:05:29;2.03;;;1.00;;
16828;SDS011;8531;48.078;11.968;2022-07-30T14:07:55;2.75;;;1.20;;
16828;SDS011;8531;48.078;11.968;2022-07-30T14:10:21;3.40;;;1.20;;
16828;SDS011;8531;48.078;11.968;2022-07-30T14:12:50;1.40;;;1.10;;
16828;SDS011;8531;48.078;11.968;2022-07-30T14:15:19;1.50;;;0.90;;
16828;SDS011;8531;48.078;11.968;2022-07-30T14:17:49;4.53;;;1.50;;
16828;SDS011;8531;48.078;11.968;2022-07-30T14:20:15;1.67;;;1.27;;
16828;SDS011;8531;48.078;11.968;2022-07-30T14:22:41;2.67;;;1.05;;
16828;SDS011;8531;48.078;11.968;2022-07-30T14:25:07;0.95;;;0.93;;
16828;SDS011;8531;48.078;11.968;2022-07-30T14:27:33;1.35;;;1.10;;
16828;SDS011;8531;48.078;11.968;2022-07-30T14:30:00;2.90;;;0.98;;
16828;SDS011;8531;48.078;11.968;2022-07-30T14:32:27;1.83;;;1.40;;
16828;SDS011;8531;48.078;11.968;2022-07-30T14:34:52;1.70;;;1.17;;
16828;SDS011;8531;48.078;11.968;2022-07-30T14:37:18;2.45;;;1.42;;
16828;SDS011;8531;48.078;11.968;2022-07-30T14:39:43;1.40;;;1.30;;
16828;SDS011;8531;48.078;11.968;2022-07-30T14:42:09;1.95;;;1.48;;
16828;SDS011;8531;48.078;11.968;2022-07-30T14:44:35;3.03;;;1.40;;
16828;SDS011;8531;48.078;11.968;2022-07-30T14:47:01;2.55;;;1.50;;
16828;SDS011;8531;48.078;11.968;2022-07-30T14:49:27;1.60;;;1.30;;
16828;SDS011;8531;48.078;11.968;2022-07-30T14:51:52;1.92;;;1.20;;
16828;SDS011;8531;48.078;11.968;2022-07-30T14:54:18;1.40;;;0.93;;
16828;SDS011;8531;48.078;11.968;2022-07-30T14:56:44;1.25;;;1.00;;
16828;SDS011;8531;48.078;11.968;2022-07-30T14:59:10;3.58;;;0.95;;
16828;SDS011;8531;48.078;11.968;2022-07-30T15:01:35;1.67;;;1.02;;
16828;SDS011;8531;48.078;11.968;2022-07-30T15:04:01;1.75;;;1.20;;
16828;SDS011;8531;48.078;11.968;2022-07-30T15:06:27;3.47;;;1.00;;
16828;SDS011;8531;48.078;11.968;2022-07-30T15:08:53;2.53;;;1.42;;
16828;SDS011;8531;48.078;11.968;2022-07-30T15:11:19;1.45;;;1.05;;
16828;SDS011;8531;48.078;11.968;2022-07-30T15:13:45;3.03;;;1.20;;
16828;SDS011;8531;48.078;11.968;2022-07-30T15:16:10;1.02;;;0.98;;
16828;SDS011;8531;48.078;11.968;2022-07-30T15:18:37;1.73;;;1.10;;
16828;SDS011;8531;48.078;11.968;2022-07-30T15:21:02;1.00;;;0.80;;
16828;SDS011;8531;48.078;11.968;2022-07-30T15:23:28;2.08;;;1.30;;
16828;SDS011;8531;48.078;11.968;2022-07-30T15:25:54;3.00;;;1.00;;